Time;durP1;ratioP1;P1;durP2;ratioP2;P2;SDS_P1;SDS_P2;PMS_P1;PMS_P2;Temp;Humidity;BMP_temperature;BMP_pressure;BME280_temperature;BME280_humidity;BME280_pressure;Samples;Min_cycle;Max_cycle;Signal;HPM_P1;HPM_P2
2023/01/26 00:01:59;;;;;;;14.70;10.77;;;0.70;99.90;;;;;;5035083;28;20197;-72
2023/01/26 00:04:24;;;;;;;16.93;11.73;;;0.70;99.90;;;;;;5037091;28;20208;-72
2023/01/26 00:06:50;;;;;;;18.67;12.40;;;0.70;99.90;;;;;;5035607;28;20240;-71
2023/01/26 00:09:15;;;;;;;19.93;13.70;;;0.70;99.90;;;;;;5033724;28;20218;-72
2023/01/26 00:11:41;;;;;;;18.17;12.73;;;0.70;99.90;;;;;;5040460;28;20187;-72
2023/01/26 00:14:07;;;;;;;18.80;13.30;;;0.60;99.90;;;;;;5041566;28;20201;-72
2023/01/26 00:16:32;;;;;;;17.90;12.70;;;0.60;99.90;;;;;;5038219;28;20200;-73
2023/01/26 00:18:59;;;;;;;16.83;12.20;;;0.60;99.90;;;;;;5037589;28;20188;-73
2023/01/26 00:21:25;;;;;;;15.43;11.10;;;0.60;99.90;;;;;;5038296;28;20286;-71
2023/01/26 00:23:51;;;;;;;17.20;11.83;;;0.60;99.90;;;;;;5036736;28;20715;-72
2023/01/26 00:26:22;;;;;;;16.00;12.10;;;0.50;99.90;;;;;;5039136;28;20223;-72
2023/01/26 00:28:48;;;;;;;17.80;13.00;;;0.40;99.90;;;;;;5035395;28;20182;-72
2023/01/26 00:31:17;;;;;;;18.40;13.13;;;0.40;99.90;;;;;;5045247;28;20603;-72
2023/01/26 00:33:42;;;;;;;19.83;13.10;;;0.40;99.90;;;;;;5044488;28;20199;-72
2023/01/26 00:36:09;;;;;;;15.50;11.70;;;0.40;99.90;;;;;;5041079;28;20233;-71
2023/01/26 00:38:34;;;;;;;16.57;11.33;;;0.40;99.90;;;;;;5038547;28;20230;-71
2023/01/26 00:41:00;;;;;;;18.77;12.47;;;0.40;99.90;;;;;;5040160;28;20259;-73
2023/01/26 00:43:25;;;;;;;18.97;12.70;;;0.40;99.90;;;;;;5036992;28;20206;-73
2023/01/26 00:45:51;;;;;;;17.30;12.40;;;0.50;99.90;;;;;;5043428;28;20251;-73
2023/01/26 00:48:17;;;;;;;15.90;10.87;;;0.40;99.90;;;;;;5041569;28;20542;-72
2023/01/26 00:50:42;;;;;;;16.27;11.40;;;0.50;99.90;;;;;;5040339;28;20247;-72
2023/01/26 00:53:09;;;;;;;16.97;11.67;;;0.40;99.90;;;;;;5043844;28;20172;-72
2023/01/26 00:55:34;;;;;;;17.63;11.50;;;0.40;99.90;;;;;;5032165;28;20216;-73
2023/01/26 00:58:05;;;;;;;19.43;13.07;;;0.40;99.90;;;;;;5030631;28;20188;-72
2023/01/26 01:00:32;;;;;;;15.47;11.60;;;0.30;99.90;;;;;;5031637;28;20674;-72
2023/01/26 01:02:58;;;;;;;15.57;11.73;;;0.40;99.90;;;;;;5032042;28;20181;-72
2023/01/26 01:05:26;;;;;;;16.43;11.37;;;0.50;99.90;;;;;;5026740;28;20770;-72
2023/01/26 01:07:52;;;;;;;17.33;12.43;;;0.60;99.90;;;;;;5022509;28;20290;-72
2023/01/26 01:10:18;;;;;;;17.17;12.93;;;0.40;99.90;;;;;;5023795;28;20624;-72
2023/01/26 01:12:43;;;;;;;17.80;11.73;;;0.50;99.90;;;;;;5028109;28;20204;-72
2023/01/26 01:15:10;;;;;;;16.13;11.10;;;0.40;99.90;;;;;;5025403;28;20684;-72
2023/01/26 01:17:36;;;;;;;18.17;12.40;;;0.40;99.90;;;;;;5027956;28;20551;-72
2023/01/26 01:20:07;;;;;;;17.90;12.90;;;0.40;99.90;;;;;;5029477;28;20188;-72
2023/01/26 01:22:34;;;;;;;18.93;12.80;;;0.30;99.90;;;;;;5022492;28;20549;-72
2023/01/26 01:24:59;;;;;;;19.37;12.97;;;0.30;99.90;;;;;;5027778;28;20333;-72
2023/01/26 01:27:25;;;;;;;17.10;11.13;;;0.40;99.90;;;;;;5023519;28;20205;-72
2023/01/26 01:29:51;;;;;;;18.67;11.60;;;0.30;99.90;;;;;;5039507;28;20172;-72
2023/01/26 01:32:18;;;;;;;18.53;13.27;;;0.40;99.90;;;;;;5040156;28;20180;-72
2023/01/26 01:34:46;;;;;;;20.50;12.33;;;0.40;99.90;;;;;;5028173;28;20246;-72
2023/01/26 01:37:12;;;;;;;17.03;12.20;;;0.40;99.90;;;;;;5026340;28;20177;-72
2023/01/26 01:39:38;;;;;;;16.17;11.53;;;0.40;99.90;;;;;;5024316;28;20531;-72
2023/01/26 01:42:03;;;;;;;17.70;12.80;;;0.50;99.90;;;;;;5029289;28;20184;-72
2023/01/26 01:44:29;;;;;;;15.30;11.87;;;0.50;99.90;;;;;;5023095;28;20240;-72
2023/01/26 01:46:59;;;;;;;17.07;12.67;;;0.50;99.90;;;;;;5027654;28;20201;-72
2023/01/26 01:49:35;;;;;;;18.03;12.73;;;0.50;99.90;;;;;;5027696;28;20234;-72
2023/01/26 01:52:04;;;;;;;15.90;11.87;;;0.50;99.90;;;;;;5032848;28;20176;-72
2023/01/26 01:54:43;;;;;;;15.37;11.53;;;0.50;99.90;;;;;;5025771;28;20200;-72
2023/01/26 01:57:17;;;;;;;16.03;11.43;;;0.50;99.90;;;;;;5026226;28;20184;-72
2023/01/26 01:59:53;;;;;;;15.80;11.73;;;0.50;99.90;;;;;;5020115;28;20209;-72
2023/01/26 02:02:19;;;;;;;15.53;11.63;;;0.50;99.90;;;;;;5018633;28;20243;-72
2023/01/26 02:04:45;;;;;;;17.73;12.43;;;0.50;99.90;;;;;;5022217;28;20212;-72
2023/01/26 02:07:11;;;;;;;18.80;12.97;;;0.50;99.90;;;;;;5023484;28;20200;-71
2023/01/26 02:12:28;;;;;;;18.23;12.93;;;0.50;99.90;;;;;;5023630;28;20200;-71
2023/01/26 02:14:55;;;;;;;16.67;11.53;;;0.40;99.90;;;;;;5030062;28;20197;-71
2023/01/26 02:17:21;;;;;;;17.90;11.73;;;0.50;99.90;;;;;;5037081;28;20191;-72
2023/01/26 02:20:06;;;;;;;16.30;12.17;;;0.40;99.90;;;;;;5033525;28;20558;-72
2023/01/26 02:22:57;;;;;;;19.37;12.43;;;0.40;99.90;;;;;;5041331;28;20183;-72
2023/01/26 02:25:38;;;;;;;17.00;11.97;;;0.50;99.90;;;;;;5034341;28;20191;-71
2023/01/26 02:28:04;;;;;;;17.90;12.67;;;0.50;99.90;;;;;;5034577;28;20211;-71
2023/01/26 02:30:30;;;;;;;20.20;12.53;;;0.40;99.90;;;;;;5034506;28;20180;-71
2023/01/26 02:32:56;;;;;;;16.17;12.50;;;0.30;99.90;;;;;;5045904;28;20195;-71
2023/01/26 02:35:21;;;;;;;20.00;13.53;;;0.30;99.90;;;;;;5035972;28;20559;-72
2023/01/26 02:37:47;;;;;;;16.60;12.73;;;0.20;99.90;;;;;;5038183;28;20183;-72
2023/01/26 02:40:25;;;;;;;17.37;12.40;;;0.10;99.90;;;;;;5034601;28;20653;-72
2023/01/26 02:42:53;;;;;;;19.93;12.60;;;0.10;99.90;;;;;;5035583;28;20184;-72
2023/01/26 02:45:20;;;;;;;18.53;13.00;;;0.20;99.90;;;;;;5038626;28;20188;-72
2023/01/26 02:47:46;;;;;;;20.30;11.90;;;0.20;99.90;;;;;;5036983;28;20212;-71
2023/01/26 02:50:12;;;;;;;17.40;12.70;;;0.10;99.90;;;;;;5033374;28;20187;-71
2023/01/26 02:52:38;;;;;;;17.63;11.93;;;0.10;99.90;;;;;;5033324;28;20200;-71
2023/01/26 02:55:22;;;;;;;18.47;12.53;;;0.10;99.90;;;;;;5039218;28;20199;-72
2023/01/26 02:57:51;;;;;;;18.23;13.10;;;0.30;99.90;;;;;;5028641;28;20237;-72
2023/01/26 03:00:22;;;;;;;18.90;12.23;;;0.40;99.90;;;;;;5033941;28;20184;-72
2023/01/26 03:02:50;;;;;;;17.05;12.43;;;0.40;99.90;;;;;;5040989;28;20658;-72
2023/01/26 03:05:16;;;;;;;17.57;11.77;;;0.60;99.90;;;;;;5035619;28;20655;-71
2023/01/26 03:07:41;;;;;;;18.17;12.53;;;0.60;99.90;;;;;;5037860;28;20597;-72
2023/01/26 03:10:09;;;;;;;18.57;12.30;;;0.60;99.90;;;;;;5037849;28;20172;-72
2023/01/26 03:12:35;;;;;;;20.10;14.07;;;0.50;99.90;;;;;;5041907;28;20176;-72
2023/01/26 03:17:44;;;;;;;16.83;11.97;;;0.40;99.90;;;;;;5038192;28;20208;-71
2023/01/26 03:28:24;;;;;;;13.80;11.23;;;0.20;99.90;;;;;;5031344;28;20685;-72
2023/01/26 03:30:51;;;;;;;15.73;11.53;;;0.30;99.90;;;;;;5034407;28;20180;-72
2023/01/26 03:33:17;;;;;;;16.23;11.23;;;0.30;99.90;;;;;;5028876;28;20179;-72
2023/01/26 03:35:43;;;;;;;16.37;12.30;;;0.30;99.90;;;;;;5040240;28;20183;-71
2023/01/26 03:38:09;;;;;;;16.97;12.40;;;0.30;99.90;;;;;;5040382;28;20167;-71
2023/01/26 03:57:00;;;;;;;18.00;12.13;;;0.60;99.90;;;;;;5044475;28;20275;-71
2023/01/26 03:59:38;;;;;;;15.60;11.33;;;0.60;99.90;;;;;;5039888;28;20248;-70
2023/01/26 04:10:23;;;;;;;15.97;11.40;;;0.10;99.90;;;;;;5040606;28;20191;-72
2023/01/26 04:23:49;;;;;;;13.37;10.57;;;0.30;99.90;;;;;;5031656;28;20208;-72
2023/01/26 04:26:15;;;;;;;13.47;10.73;;;0.30;99.90;;;;;;5035547;28;20255;-72
2023/01/26 04:28:41;;;;;;;13.77;10.83;;;0.20;99.90;;;;;;5032178;28;20703;-72
2023/01/26 04:31:07;;;;;;;15.67;12.13;;;0.20;99.90;;;;;;5031299;28;20254;-72
2023/01/26 04:33:33;;;;;;;16.13;12.17;;;0.30;99.90;;;;;;5023169;28;20186;-72
2023/01/26 04:36:03;;;;;;;16.03;11.60;;;0.30;99.90;;;;;;5024499;28;20231;-71
2023/01/26 04:38:28;;;;;;;14.20;9.63;;;0.30;99.90;;;;;;5023096;28;20643;-72
2023/01/26 04:40:54;;;;;;;15.83;10.93;;;0.30;99.90;;;;;;5024294;28;20184;-71
2023/01/26 04:43:20;;;;;;;15.87;11.07;;;0.40;99.90;;;;;;5042063;28;20179;-71
2023/01/26 04:46:00;;;;;;;15.93;12.03;;;0.40;99.90;;;;;;5032632;28;20256;-70
2023/01/26 04:48:27;;;;;;;15.00;11.57;;;0.40;99.90;;;;;;5026609;28;20181;-71
2023/01/26 04:50:54;;;;;;;18.43;12.33;;;0.30;99.90;;;;;;5041075;28;20173;-71
2023/01/26 04:53:20;;;;;;;17.67;12.53;;;0.30;99.90;;;;;;5033409;28;20674;-71
2023/01/26 04:55:46;;;;;;;18.10;12.97;;;0.30;99.90;;;;;;5043199;28;20216;-70
2023/01/26 04:58:11;;;;;;;17.47;12.50;;;0.20;99.90;;;;;;5031149;28;20946;-71
2023/01/26 05:00:37;;;;;;;17.10;11.67;;;0.40;99.90;;;;;;5035572;28;20187;-71
2023/01/26 05:03:02;;;;;;;15.60;11.90;;;0.50;99.90;;;;;;5037264;28;20275;-72
2023/01/26 05:05:28;;;;;;;16.97;12.43;;;0.50;99.90;;;;;;5034229;28;20216;-72
2023/01/26 05:07:53;;;;;;;16.67;12.77;;;0.50;99.90;;;;;;5036002;28;20590;-72
2023/01/26 05:10:19;;;;;;;16.50;11.57;;;0.40;99.90;;;;;;5034275;28;20549;-72
2023/01/26 05:12:45;;;;;;;16.47;12.03;;;0.50;99.90;;;;;;5038946;28;20200;-72
2023/01/26 05:15:10;;;;;;;15.63;11.80;;;0.60;99.90;;;;;;5034834;28;20196;-72
2023/01/26 05:17:36;;;;;;;17.80;10.93;;;0.50;99.90;;;;;;5031184;28;20188;-72
2023/01/26 05:20:03;;;;;;;14.23;11.53;;;0.30;99.90;;;;;;5032319;28;20619;-72
2023/01/26 05:22:28;;;;;;;15.53;11.47;;;0.20;99.90;;;;;;5040620;28;20187;-72
2023/01/26 05:24:54;;;;;;;16.67;12.17;;;0.30;99.90;;;;;;5038189;28;20246;-72
2023/01/26 05:27:22;;;;;;;18.90;12.10;;;0.20;99.90;;;;;;5040613;28;20200;-72
2023/01/26 05:29:49;;;;;;;15.90;11.50;;;0.20;99.90;;;;;;5036998;28;20188;-72
2023/01/26 05:32:15;;;;;;;15.13;11.23;;;0.20;99.90;;;;;;5033245;28;20176;-71
2023/01/26 05:34:40;;;;;;;16.10;11.30;;;0.20;99.90;;;;;;5040617;28;20204;-72
2023/01/26 05:37:06;;;;;;;12.90;9.50;;;0.20;99.90;;;;;;5032049;28;20180;-72
2023/01/26 05:39:31;;;;;;;13.23;10.50;;;0.10;99.90;;;;;;5034505;28;20255;-72
2023/01/26 05:41:57;;;;;;;13.50;10.33;;;0.20;99.90;;;;;;5046113;28;20179;-71
2023/01/26 05:44:28;;;;;;;15.10;11.63;;;0.20;99.90;;;;;;5039396;28;20559;-71
2023/01/26 05:46:53;;;;;;;15.80;12.20;;;0.20;99.90;;;;;;5037364;28;20196;-72
2023/01/26 05:49:19;;;;;;;16.23;11.00;;;0.20;99.90;;;;;;5031666;28;20180;-72
2023/01/26 05:51:44;;;;;;;16.53;11.30;;;0.30;99.90;;;;;;5029718;28;20647;-72
2023/01/26 05:54:10;;;;;;;17.70;12.10;;;0.30;99.90;;;;;;5032621;28;20278;-72
2023/01/26 05:56:36;;;;;;;15.83;11.33;;;0.30;99.90;;;;;;5034554;28;20656;-72
2023/01/26 05:59:01;;;;;;;15.93;10.93;;;0.20;99.90;;;;;;5032662;28;20259;-72
2023/01/26 06:01:27;;;;;;;15.90;11.77;;;0.20;99.90;;;;;;5035272;28;20608;-72
2023/01/26 06:03:53;;;;;;;16.73;12.50;;;0.10;99.90;;;;;;5032367;28;20342;-72
2023/01/26 06:06:19;;;;;;;16.67;12.43;;;0.10;99.90;;;;;;5021795;28;20192;-72
2023/01/26 06:08:44;;;;;;;15.77;11.50;;;0.20;99.90;;;;;;5022322;28;20180;-72
2023/01/26 06:11:10;;;;;;;16.47;12.03;;;0.20;99.90;;;;;;5034284;28;20634;-72
2023/01/26 06:13:36;;;;;;;17.27;12.53;;;0.20;99.90;;;;;;5028336;28;20238;-71
2023/01/26 06:16:01;;;;;;;18.03;12.60;;;0.20;99.90;;;;;;5035450;28;20173;-72
2023/01/26 06:18:27;;;;;;;15.73;12.00;;;0.10;99.90;;;;;;5035150;28;20183;-71
2023/01/26 06:20:53;;;;;;;17.57;12.53;;;0.20;99.90;;;;;;5034541;28;20293;-70
2023/01/26 06:23:18;;;;;;;16.07;11.33;;;0.20;99.90;;;;;;5043677;28;20230;-72
2023/01/26 06:25:44;;;;;;;21.60;13.50;;;0.30;99.90;;;;;;5038996;28;20180;-72
2023/01/26 06:28:09;;;;;;;16.87;12.23;;;0.30;99.90;;;;;;5042389;28;20198;-71
2023/01/26 06:30:35;;;;;;;17.73;12.27;;;0.30;99.90;;;;;;5041718;28;20194;-71
2023/01/26 06:33:01;;;;;;;15.00;10.70;;;0.50;99.90;;;;;;5041586;28;20235;-72
2023/01/26 06:35:27;;;;;;;15.93;9.83;;;0.60;99.90;;;;;;5036480;28;20733;-72
2023/01/26 06:37:52;;;;;;;16.50;10.67;;;0.60;99.90;;;;;;5027043;28;20180;-72
2023/01/26 06:40:18;;;;;;;16.30;10.67;;;0.60;99.90;;;;;;5030965;28;20173;-72
2023/01/26 06:42:50;;;;;;;15.53;10.87;;;0.60;99.90;;;;;;5029708;28;20184;-73
2023/01/26 06:45:16;;;;;;;17.60;11.73;;;0.60;99.90;;;;;;5024088;28;20605;-72
2023/01/26 06:47:50;;;;;;;17.47;10.70;;;0.60;99.90;;;;;;5032384;28;20204;-75
2023/01/26 06:50:19;;;;;;;16.23;10.47;;;0.50;99.90;;;;;;5025672;28;20247;-73
2023/01/26 06:52:49;;;;;;;15.33;9.27;;;0.50;99.90;;;;;;5030767;28;20219;-72
2023/01/26 06:55:36;;;;;;;17.67;12.53;;;0.60;99.90;;;;;;5038781;28;20206;-71
2023/01/26 06:58:01;;;;;;;15.67;12.07;;;0.50;99.90;;;;;;5030603;28;20189;-74
2023/01/26 07:00:27;;;;;;;20.00;12.50;;;0.40;99.90;;;;;;5038460;28;20182;-74
2023/01/26 07:02:53;;;;;;;17.00;12.10;;;0.40;99.90;;;;;;5029713;28;20197;-75
2023/01/26 07:05:19;;;;;;;16.60;11.10;;;0.40;99.90;;;;;;5029560;28;20217;-75
2023/01/26 07:07:44;;;;;;;17.57;11.63;;;0.30;99.90;;;;;;5035424;28;20666;-74
2023/01/26 07:10:10;;;;;;;16.87;10.93;;;0.50;99.90;;;;;;5028159;28;20184;-76
2023/01/26 07:12:41;;;;;;;16.13;10.97;;;0.50;99.90;;;;;;5023072;28;20643;-73
2023/01/26 07:15:08;;;;;;;17.90;11.57;;;0.50;99.90;;;;;;5026644;28;20207;-72
2023/01/26 07:17:33;;;;;;;16.63;11.60;;;0.50;99.90;;;;;;5036479;28;20662;-73
2023/01/26 07:19:59;;;;;;;17.87;12.10;;;0.40;99.90;;;;;;5039537;28;20200;-73
2023/01/26 07:22:24;;;;;;;17.93;11.63;;;0.30;99.90;;;;;;5036052;28;20639;-73
2023/01/26 07:24:50;;;;;;;23.17;13.07;;;0.40;99.90;;;;;;5037176;28;20216;-73
2023/01/26 07:27:16;;;;;;;15.33;11.23;;;0.40;99.90;;;;;;5031434;28;20214;-74
2023/01/26 07:29:41;;;;;;;22.03;12.00;;;0.50;99.90;;;;;;5035469;28;20176;-75
2023/01/26 07:32:07;;;;;;;17.37;11.57;;;0.50;99.90;;;;;;5027112;28;20172;-73
2023/01/26 07:34:32;;;;;;;19.30;11.20;;;0.50;99.90;;;;;;5032871;28;20339;-73
2023/01/26 07:36:58;;;;;;;13.00;9.67;;;0.50;99.90;;;;;;5031793;28;20684;-72
2023/01/26 07:39:23;;;;;;;15.03;9.50;;;0.50;99.90;;;;;;5021911;28;20177;-73
2023/01/26 07:41:49;;;;;;;13.80;8.83;;;0.50;99.90;;;;;;5022474;28;20189;-72
2023/01/26 07:44:15;;;;;;;15.63;10.13;;;0.50;99.90;;;;;;5035892;28;20196;-75
2023/01/26 07:46:41;;;;;;;12.47;9.60;;;0.30;99.90;;;;;;5037149;28;20223;-71
2023/01/26 07:49:06;;;;;;;16.00;10.33;;;0.20;99.90;;;;;;5025655;28;20659;-71
2023/01/26 07:51:32;;;;;;;13.00;9.00;;;0.10;99.90;;;;;;5029721;28;20223;-72
2023/01/26 07:53:58;;;;;;;13.03;8.50;;;0.30;99.90;;;;;;5029912;28;20207;-72
2023/01/26 07:56:24;;;;;;;13.77;10.07;;;0.40;99.90;;;;;;5034880;28;20215;-73
2023/01/26 07:58:51;;;;;;;14.57;8.47;;;0.50;99.90;;;;;;5036255;28;20181;-72
2023/01/26 08:01:17;;;;;;;14.00;9.73;;;0.50;99.90;;;;;;5027497;28;20346;-73
2023/01/26 08:03:44;;;;;;;14.07;9.13;;;0.50;99.90;;;;;;5037219;28;20204;-72
2023/01/26 08:06:10;;;;;;;13.67;9.20;;;0.50;99.90;;;;;;5038396;28;20184;-73
2023/01/26 08:08:38;;;;;;;15.07;9.70;;;0.40;99.90;;;;;;5024482;28;20184;-73
2023/01/26 08:11:04;;;;;;;12.40;9.23;;;0.50;99.90;;;;;;5030091;28;20165;-74
2023/01/26 08:13:30;;;;;;;14.73;9.97;;;0.50;99.90;;;;;;5036491;28;20715;-72
2023/01/26 08:16:06;;;;;;;13.90;9.47;;;0.40;99.90;;;;;;5033655;28;20181;-71
2023/01/26 08:18:31;;;;;;;13.33;8.93;;;0.50;99.90;;;;;;5033580;28;20176;-71
2023/01/26 08:20:59;;;;;;;12.03;8.07;;;0.50;99.90;;;;;;5035084;28;20188;-71
2023/01/26 08:23:24;;;;;;;14.37;9.73;;;0.50;99.90;;;;;;5031884;28;20219;-71
2023/01/26 08:25:50;;;;;;;10.37;7.07;;;0.60;99.90;;;;;;5035896;28;20216;-71
2023/01/26 08:28:16;;;;;;;13.77;8.00;;;0.60;99.90;;;;;;5030397;28;20239;-72
2023/01/26 08:30:41;;;;;;;9.53;7.80;;;0.60;99.90;;;;;;5035944;28;20678;-73
2023/01/26 08:33:07;;;;;;;13.07;8.40;;;0.60;99.90;;;;;;5036031;28;20176;-77
2023/01/26 08:35:33;;;;;;;10.67;6.67;;;0.50;99.90;;;;;;5041523;28;20265;-72
2023/01/26 08:37:59;;;;;;;12.93;9.07;;;0.50;99.90;;;;;;5037836;28;20200;-74
2023/01/26 08:40:24;;;;;;;12.37;9.37;;;0.50;99.90;;;;;;5043182;28;20176;-74
2023/01/26 08:42:51;;;;;;;12.57;9.40;;;0.40;99.90;;;;;;5040944;28;20745;-74
2023/01/26 08:45:17;;;;;;;12.27;8.70;;;0.20;99.90;;;;;;5046216;28;20203;-74
2023/01/26 08:47:42;;;;;;;11.27;9.10;;;0.30;99.90;;;;;;5028214;28;20296;-74
2023/01/26 08:50:09;;;;;;;10.80;8.33;;;0.20;99.90;;;;;;5033318;28;20177;-74
2023/01/26 08:52:34;;;;;;;10.13;7.57;;;0.30;99.90;;;;;;5034319;28;20644;-75
2023/01/26 08:55:02;;;;;;;10.17;7.97;;;0.40;99.90;;;;;;5035482;28;20255;-74
2023/01/26 08:57:27;;;;;;;11.47;8.30;;;0.50;99.90;;;;;;5040841;28;20171;-74
2023/01/26 08:59:53;;;;;;;9.83;7.47;;;0.60;99.90;;;;;;5042015;28;20266;-74
2023/01/26 09:02:18;;;;;;;13.73;8.23;;;0.60;99.90;;;;;;5040017;28;20172;-74
2023/01/26 09:04:44;;;;;;;9.30;7.47;;;0.70;99.90;;;;;;5027388;28;20231;-74
2023/01/26 09:07:09;;;;;;;10.20;7.67;;;0.60;99.90;;;;;;5037910;28;20250;-74
2023/01/26 09:09:35;;;;;;;12.53;7.50;;;0.50;99.90;;;;;;5042740;28;20180;-74
2023/01/26 09:12:01;;;;;;;9.17;7.50;;;0.50;99.90;;;;;;5035670;28;20176;-74
2023/01/26 09:14:27;;;;;;;9.83;7.47;;;0.50;99.90;;;;;;5041391;28;20197;-74
2023/01/26 09:16:53;;;;;;;8.57;6.47;;;0.70;99.90;;;;;;5040173;28;20188;-73
2023/01/26 09:19:18;;;;;;;8.30;6.47;;;0.80;99.90;;;;;;5044491;28;20168;-73
2023/01/26 09:21:44;;;;;;;8.40;6.00;;;0.90;99.90;;;;;;5039187;28;20176;-74
2023/01/26 09:24:10;;;;;;;7.37;6.50;;;0.90;99.90;;;;;;5038976;28;20196;-74
2023/01/26 09:26:35;;;;;;;8.13;6.77;;;0.90;99.90;;;;;;5042557;28;20200;-74
2023/01/26 09:29:01;;;;;;;8.50;6.57;;;1.00;99.90;;;;;;5040336;28;20186;-73
2023/01/26 09:31:27;;;;;;;9.53;6.70;;;1.00;99.90;;;;;;5037328;28;20187;-74
2023/01/26 09:33:52;;;;;;;8.23;7.13;;;1.00;99.90;;;;;;5045136;28;20231;-73
2023/01/26 09:36:18;;;;;;;7.50;6.40;;;1.00;99.90;;;;;;5030732;28;20169;-74
2023/01/26 09:38:44;;;;;;;8.47;6.60;;;0.90;99.90;;;;;;5038788;28;20222;-74
2023/01/26 09:41:28;;;;;;;8.43;6.63;;;1.00;99.90;;;;;;5038985;28;20741;-74
2023/01/26 09:44:03;;;;;;;8.63;7.03;;;1.10;99.90;;;;;;5026980;28;20211;-74
2023/01/26 09:46:53;;;;;;;7.53;6.55;;;1.20;99.90;;;;;;5041775;28;20207;-74
2023/01/26 09:49:27;;;;;;;10.20;7.53;;;1.30;99.90;;;;;;5035816;28;20172;-74
2023/01/26 09:52:04;;;;;;;10.15;7.35;;;1.40;99.90;;;;;;5036891;28;20521;-74
2023/01/26 09:54:50;;;;;;;8.45;6.40;;;1.50;99.90;;;;;;5035817;28;20203;-74
2023/01/26 09:57:19;;;;;;;6.38;5.75;;;1.40;99.90;;;;;;5027434;28;20180;-74
2023/01/26 10:00:06;;;;;;;7.85;6.78;;;1.50;99.90;;;;;;5036187;28;20195;-74
2023/01/26 10:02:53;;;;;;;10.30;7.37;;;1.40;99.90;;;;;;5021822;28;20258;-74
2023/01/26 10:05:36;;;;;;;8.60;6.65;;;1.30;99.90;;;;;;5030431;28;20267;-74
2023/01/26 10:08:02;;;;;;;8.05;6.93;;;1.40;99.90;;;;;;5042137;28;20203;-74
2023/01/26 10:10:42;;;;;;;12.65;7.72;;;1.60;99.90;;;;;;5033069;28;20223;-73
2023/01/26 10:13:12;;;;;;;11.27;8.15;;;1.70;99.90;;;;;;5042828;28;20160;-75
2023/01/26 10:15:42;;;;;;;11.23;7.88;;;1.60;99.90;;;;;;5018572;28;20208;-74
2023/01/26 10:18:22;;;;;;;9.02;7.30;;;1.70;99.90;;;;;;5036813;28;20210;-73
2023/01/26 10:20:52;;;;;;;8.95;6.80;;;1.50;99.90;;;;;;5033215;28;20187;-73
2023/01/26 10:23:25;;;;;;;8.25;6.97;;;1.50;99.90;;;;;;5024446;28;20184;-73
2023/01/26 10:25:53;;;;;;;10.27;7.57;;;1.40;99.90;;;;;;5027024;28;20245;-73
2023/01/26 10:28:34;;;;;;;10.38;7.00;;;1.40;99.90;;;;;;5030095;28;20199;-73
2023/01/26 10:31:02;;;;;;;9.60;7.63;;;1.50;99.90;;;;;;5026710;28;20177;-73
2023/01/26 10:33:34;;;;;;;8.57;6.97;;;1.50;99.90;;;;;;5025990;28;20178;-73
2023/01/26 10:36:02;;;;;;;9.07;7.75;;;1.50;99.90;;;;;;5030387;28;20208;-73
2023/01/26 10:38:34;;;;;;;8.73;6.90;;;1.50;99.90;;;;;;5029738;28;20237;-73
2023/01/26 10:41:02;;;;;;;10.98;7.65;;;1.50;99.90;;;;;;5035181;28;20223;-72
2023/01/26 10:43:28;;;;;;;8.43;6.95;;;1.40;99.90;;;;;;5034217;28;20185;-73
2023/01/26 10:45:53;;;;;;;10.73;7.85;;;1.50;99.90;;;;;;5023805;28;20188;-73
2023/01/26 10:48:25;;;;;;;7.53;6.70;;;1.50;99.90;;;;;;5028498;28;20215;-73
2023/01/26 10:50:52;;;;;;;8.43;6.97;;;1.80;99.90;;;;;;5032968;28;20164;-76
2023/01/26 10:53:28;;;;;;;9.05;7.22;;;1.80;99.90;;;;;;5031793;28;20229;-73
2023/01/26 10:56:06;;;;;;;12.85;7.82;;;1.90;99.90;;;;;;5035273;28;20241;-74
2023/01/26 10:58:41;;;;;;;9.25;7.45;;;1.90;99.90;;;;;;5029191;28;20659;-73
2023/01/26 11:01:15;;;;;;;8.52;7.15;;;1.80;99.90;;;;;;5020938;28;20238;-72
2023/01/26 11:03:42;;;;;;;9.02;7.22;;;1.90;99.90;;;;;;5030276;28;20206;-73
2023/01/26 11:06:15;;;;;;;10.30;7.20;;;1.80;99.90;;;;;;5034829;28;20191;-71
2023/01/26 11:08:42;;;;;;;9.85;7.40;;;1.80;99.90;;;;;;5033867;28;20685;-70
2023/01/26 11:11:26;;;;;;;10.05;7.57;;;1.90;99.90;;;;;;5026774;28;20655;-71
2023/01/26 11:14:16;;;;;;;8.57;6.90;;;2.00;99.90;;;;;;5017117;28;20702;-71
2023/01/26 11:17:04;;;;;;;8.38;6.32;;;2.00;99.90;;;;;;5025530;28;20184;-70
2023/01/26 11:20:06;;;;;;;7.75;6.28;;;1.90;99.90;;;;;;5017495;28;20251;-71
2023/01/26 11:22:51;;;;;;;9.07;7.38;;;1.90;99.90;;;;;;4955941;28;20227;-71
2023/01/26 11:25:27;;;;;;;8.05;6.40;;;1.90;99.90;;;;;;5019674;28;20280;-74
2023/01/26 11:28:06;;;;;;;7.80;6.40;;;1.90;99.90;;;;;;5021164;28;20209;-72
2023/01/26 11:31:13;;;;;;;8.00;6.65;;;1.90;99.90;;;;;;5019604;28;20172;-73
2023/01/26 11:34:11;;;;;;;7.00;5.82;;;1.80;99.90;;;;;;5000726;28;20254;-74
2023/01/26 11:36:58;;;;;;;8.82;6.32;;;1.70;99.90;;;;;;5016836;28;20181;-72
2023/01/26 11:39:38;;;;;;;8.65;6.30;;;1.80;99.90;;;;;;5020151;28;20183;-75
2023/01/26 11:42:22;;;;;;;7.50;6.65;;;1.80;99.90;;;;;;5025161;28;20187;-71
2023/01/26 11:45:03;;;;;;;7.60;5.55;;;1.80;99.90;;;;;;5022509;28;20220;-72
2023/01/26 11:47:35;;;;;;;8.30;6.57;;;1.90;99.90;;;;;;5022997;28;20678;-71
2023/01/26 11:50:31;;;;;;;8.68;6.30;;;1.90;99.90;;;;;;5029676;28;20180;-72
2023/01/26 11:53:23;;;;;;;8.68;6.60;;;1.90;99.90;;;;;;5032053;28;20204;-72
2023/01/26 11:56:04;;;;;;;8.63;6.28;;;1.90;99.90;;;;;;5024854;28;20719;-76
2023/01/26 11:58:48;;;;;;;7.82;5.50;;;1.90;99.90;;;;;;5021599;28;20554;-75
2023/01/26 12:01:27;;;;;;;7.25;5.70;;;1.90;99.90;;;;;;5027490;28;20176;-73
2023/01/26 12:03:54;;;;;;;9.90;6.13;;;2.00;99.90;;;;;;5029439;28;20259;-73
2023/01/26 12:06:33;;;;;;;6.60;5.60;;;2.00;99.90;;;;;;5026972;28;20685;-73
2023/01/26 12:09:22;;;;;;;6.95;5.70;;;1.90;99.90;;;;;;5020062;28;20177;-73
2023/01/26 12:11:59;;;;;;;5.70;4.70;;;1.80;99.90;;;;;;5030770;28;20663;-74
2023/01/26 12:14:35;;;;;;;7.15;5.97;;;1.90;99.90;;;;;;5026310;28;20191;-73
2023/01/26 12:17:04;;;;;;;7.13;5.38;;;1.90;99.90;;;;;;5035205;28;20181;-74
2023/01/26 12:19:51;;;;;;;6.45;5.75;;;1.90;99.90;;;;;;5031222;28;20212;-74
2023/01/26 12:22:39;;;;;;;7.78;6.05;;;2.00;99.90;;;;;;5023323;28;20586;-74
2023/01/26 12:25:36;;;;;;;7.63;5.88;;;2.10;99.90;;;;;;5024315;28;20201;-74
2023/01/26 12:28:16;;;;;;;8.10;5.43;;;2.10;99.90;;;;;;5024654;28;20204;-73
2023/01/26 12:30:46;;;;;;;7.00;5.57;;;2.10;99.90;;;;;;5023517;28;20629;-74
2023/01/26 12:33:12;;;;;;;6.50;5.80;;;2.00;99.90;;;;;;5021086;28;20169;-73
2023/01/26 12:36:02;;;;;;;6.00;5.40;;;2.00;99.90;;;;;;5028035;28;20204;-73
2023/01/26 12:39:07;;;;;;;6.72;4.93;;;2.10;99.90;;;;;;5029942;28;20199;-73
2023/01/26 12:42:15;;;;;;;8.00;6.13;;;2.10;99.90;;;;;;5033658;28;20184;-73
2023/01/26 12:45:13;;;;;;;6.18;5.25;;;1.90;99.90;;;;;;5025300;28;20203;-73
2023/01/26 12:47:46;;;;;;;6.40;5.80;;;1.80;99.90;;;;;;5026898;28;20576;-73
2023/01/26 12:50:34;;;;;;;6.90;5.32;;;1.90;99.90;;;;;;5030130;28;20643;-73
2023/01/26 12:53:12;;;;;;;8.30;5.65;;;1.90;99.90;;;;;;5024816;28;20173;-73
2023/01/26 12:55:47;;;;;;;5.93;4.82;;;1.80;99.90;;;;;;5027118;28;20741;-74
2023/01/26 12:58:19;;;;;;;6.95;5.60;;;1.80;99.90;;;;;;5030285;28;20176;-73
2023/01/26 13:01:15;;;;;;;5.75;5.00;;;1.80;99.90;;;;;;5022352;28;20679;-74
2023/01/26 13:04:08;;;;;;;6.78;5.10;;;1.70;99.90;;;;;;5026670;28;20244;-74
2023/01/26 13:06:33;;;;;;;5.15;4.60;;;1.60;99.90;;;;;;5022882;28;20196;-74
2023/01/26 13:09:22;;;;;;;7.38;5.50;;;1.70;99.90;;;;;;5027643;28;20195;-74
2023/01/26 13:11:57;;;;;;;7.20;5.53;;;1.80;99.90;;;;;;5031590;28;20204;-74
2023/01/26 13:14:29;;;;;;;6.32;4.50;;;1.80;99.90;;;;;;5026623;28;20284;-74
2023/01/26 13:16:56;;;;;;;5.45;4.85;;;1.70;99.90;;;;;;5026788;28;20184;-74
2023/01/26 13:19:34;;;;;;;6.47;5.80;;;1.90;99.90;;;;;;5024174;28;20192;-74
2023/01/26 13:22:00;;;;;;;6.55;5.43;;;2.00;99.90;;;;;;5025370;28;20184;-75
2023/01/26 13:24:26;;;;;;;6.68;5.65;;;2.00;99.90;;;;;;5025465;28;20262;-74
2023/01/26 13:26:58;;;;;;;5.47;4.70;;;1.90;99.90;;;;;;5021951;28;20345;-75
2023/01/26 13:29:24;;;;;;;4.97;4.45;;;1.80;99.90;;;;;;5023526;28;20569;-74
2023/01/26 13:32:26;;;;;;;5.13;4.63;;;1.90;99.90;;;;;;5021640;28;20406;-74
2023/01/26 13:35:00;;;;;;;8.40;5.57;;;1.80;99.90;;;;;;5007100;28;20223;-74
2023/01/26 13:37:44;;;;;;;7.50;5.00;;;1.70;99.90;;;;;;5024419;28;20258;-74
2023/01/26 13:40:24;;;;;;;6.47;5.20;;;1.70;99.90;;;;;;5025930;28;20176;-74
2023/01/26 13:43:20;;;;;;;5.28;4.78;;;1.70;99.90;;;;;;5025736;28;20551;-74
2023/01/26 13:46:13;;;;;;;5.55;4.95;;;1.70;99.90;;;;;;5024207;28;20184;-73
2023/01/26 13:48:38;;;;;;;5.32;4.65;;;1.70;99.90;;;;;;5019213;28;20201;-74
2023/01/26 13:51:06;;;;;;;6.13;5.40;;;1.70;99.90;;;;;;5028830;28;20184;-74
2023/01/26 13:53:40;;;;;;;5.70;5.03;;;1.80;99.90;;;;;;5025474;28;20211;-75